Timeline UpdatesTrip UpdatesNews PostsPvt PostsTravel TipsAdmin PostsConv PostsFollowed PostsChat RequestsBlog PostsPNR Posts

Disclaimer
Search
 
 
Thu Sep 18, 2014 07:08:07 ISTHomeTrainsΣChainsAtlasPNRForumGalleryNewsFAQTripsMembersLoginFeedback
No Recent News for this Train
Other Trains in the News **new
Latest...
Tr.No.17406 Adilabad -Tirupati Express is cancelled o­n 27.04.2014.
Sat Apr 26, 2014 (03:22PM)
⇐ Return Journey: Train# 17405

17406/Krishna Express

Time-Table HAS CHANGED.
Sep 03 (11:11AM)
Change Departure Station:
Change Arrival Station:
Post a Train Travel TipPost a Train Travel Tip **new
Post a Comment/Question/Picture/VideoPost a Comment/Question/Picture/Video
Inaugural Run
Wed Oct 02, 1974
Pantry/Catering
✕ NO Pantry Car
✓ Catering Avbl
Loco/Rake Reversals
MUE/Mudkhed Junction (4); SC/Secunderabad Junction (10);
RSA - Rake Sharing
17405/17406/17409/17410 has RSA.
Rake/Coach Composition
Loco-SLR-GS-D6-D5-D4-D3-D2-D1-S2-S1-C1-B1-GS-GS-GS-GS-GS-SLR
Loco
ADB - SC: KZJ WDG-3A. SC - TPTY: LGD WAP4/7.
News    PNR    Forum    Time-Table    Availability    Fare Chart    Map    Arr/Dep History    Trips    Gallery    ΣChains    X/O    Timeline    
Travel Time: 0h 12m    0 halts    Distance: 10 km    Avg Speed: 50 km/hr
Type: Mail/Express
Zone: SCR/South Central
Departs @ 08:20
Platform# 2
SMTWTFS
Kazipet Junction/KZJ 
Arrives @ 08:32
Platform# 1
SMTWTFS
Warangal/WL 

0 halts. 0 intermediate Stations between Kazipet Junction and Warangal

Show ALL intermediate Stations  Show Old Time-Table

#CodeStation NameX/OArrivesAvgDepartsAvgHaltPFDay#KmSpeedElevZoneAddress
1ADBAdilabad (3)  -20:45-11-543.480248mSCRAdilabad, Telangana
2KNVTKinwat (2)  21:03 21:19-21:04 21:20-1m11-498.163319mSCRKinwat, Maharashtra
3BHBKBodhadi Bujrug  21:44 21:34-21:45 21:35-1m--1-483.475357mSCRKinwat, Maharashtra
4SHSKSahasrakund  22:14 21:59-22:15 22:00-1m--1-453.349402mSCRNanded, Maharashtra
5HEMHimayatnagar  22:29 22:19-22:30 22:20-1m--1-437.737398mSCRNanded, Maharashtra
6BOKRBhokar  23:24 23:19-23:25 23:20-1m11-401.628460mSCRBhokar, Maharashtra
7MUEMudkhed Junction (4)O↵¶00:05-00:15-10m22-380.434378mSCRMudkhed, Maharashtra
8UMRIUmri (1)X  00:49-00:50-1m12-360.965381mSCRHuzur Sahib Nanded, Maharashtra
9DABDharmabad (2)X  01:17-01:18-1m12-331.535354mSCRDegaon, Maharashtra
10BSXBasar (2)X  01:35-01:37-2m12-321.753358mSCRDist Adilabad, Telangana
11NZBNizamabad (3)  02:10-02:15-5m12-292.371384mSCRNizamabad, Telangana
12KMCKamareddi (3)  03:00 02:59-03:01-1 2m12-240.467528mSCRNizamabad Dist., Telangana
13AKEAkanapet (1)O  03:24-03:25-1m12-214.792566mSCRMedak District., Telangana
14MZLMirzapalli (1)  03:32-03:33-1m12-203.943530mSCRMedak Dist., Telangana
15BMOBolarum (3)X  04:55-04:56-1m12-145.227597mSCRSecunderabad, Telangana
16MJFMalkajgiri (3)X  05:19-05:20-1m22-135.18535mSCRSecunderabad, Telangana
17SCSecunderabad Junction (10)X05:45-06:05-20m62-131.643539mSCRSecunderabad 500003, Telangana
18MLYMoula Ali (2)X  06:13-06:14-1m12-125.957520mSCRSecunderabad, Telangana
19CHZCharlapalli (2)  06:21-06:22-1m22-119.276523mSCRRangareddy Dist., Telangana
20BGBhongir (3)X  06:49-06:50-1m22-85.397455mSCRNalgonda Dist., Telangana
21RAGRaigir (2)X  06:54-06:55-1m22-78.873415mSCRNalgonda, Telangana
22ALERAler (2)X  07:08-07:09-1m22-63.072366mSCRNalgonda Dist., Telangana
23PBPPembarti (2)  07:17-07:18-1m22-53.441382mSCRWarangal Dist., Telangana
24ZNJangaon (2)  07:26-07:27-1m22-47.975380mSCRWarangal Dist., Telangana
25RGPRaghunathpalli (2)  07:36-07:37-1m22-36.684357mSCRWarangal Dist., Telangana
26GNPGhanpur (2)  07:49-07:50-1m22-19.843344mSCRWarangal Dist. / Enq Ph : 08711 220231, Telangana
27KZJKazipet Junction (3)»X  08:18-08:20-2m220.051292mSCRWarangal Dist., Telangana
28WLWarangal (3)•  08:32-08:34-2m1210.274271mSCRWarangal., Telangana
29NKDNekonda (2)  08:58-08:59-1m1239.977236mSCRWarangal Dist., Telangana
30KDMKesamudram (2)X  09:11-09:12-1m1255.481223mSCRWarangal Dist., Telangana
31MABDMahbubabad (2)  09:23-09:24-1m1270.3107200mSCRWarangal Dist., Telangana
32GLAGarla (2)X  09:35-09:36-1m1290.018156mSCRKhammam Dist., Telangana
33DKJDornakal Junction (3)  09:52-09:54-2m2294.792153mSCRWarangal District, Telangana
34KMTKhammam (2)X  10:09-10:11-2m12117.788118mSCRKhammam 507001, Telangana
35BKLBona Kalu (2)  10:30-10:31-1m12145.68597mSCRKhammam Dist., Telangana
36MDRMadhira (2)  10:43-10:44-1m12162.58461mSCRKhammam Dist., Telangana
37YPErrupalem (2)X  10:55-10:56-1m--2178.01857mSCRKhammam Dist., Telangana
38KIKondapalli (2)O  12:18-12:20-2m22202.52735mSCRKondapalli, Andhra Pradesh
39BZAVijayawada Junction (10)X  12:55-13:15-20m102218.14524mSCRVijayawada 520001, Andhra Pradesh
40PVDPeddavadiapudi (3)  13:31-13:32-1m--2230.06520mSCRKL University to NH 5, Andhra Pradesh
41DIGDuggirala (3)X  13:41-13:42-1m--2239.73616mSCRDuggirala, Andhra Pradesh
42TELTenali Junction (5)  13:58-14:00-2m32249.47716mSCRTel: 08644-227834, Andhra Pradesh
43TSRTsunduru (3)  14:09-14:10-1m--2260.95712mSCRTsunduru, Andhra Pradesh
44NDONidubrolu (3)  14:21-14:22-1m--2271.4699mSCRNidubrolu, Andhra Pradesh
45BPPBapatla (3)X  14:40-14:41-1m--2292.08210mSCRBapatla, Andhra Pradesh
46CLXChirala (4)  14:52-14:53-1m--2307.0598mSCRChirala, Andhra Pradesh
47VTMVetapalem (3)X  15:01-15:02-1m--2314.9758mSCRVetapalem, Andhra Pradesh
48CJMChinnaganjam (3)  15:12-15:13-1m--2327.3779mSCRChinna Ganjam, Andhra Pradesh
49ANBAmmanabrolu (3)X  15:24-15:25-1m--2341.54316mSCRAmmanabrolu, Andhra Pradesh
50OGLOngole (3)  15:46-15:48-2m32356.47012mSCROngole, Andhra Pradesh
51TNRTanguturu (3)  16:04-16:05-1m12375.07210mSCRTanguturu, Andhra Pradesh
52SKMSingarayakonda (2)X  16:13-16:14-1m22384.69926mSCRSingarayakonda, Andhra Pradesh
53KVZKavali (4)X  16:37-16:39-2m22422.48221mSCRKavali, Andhra Pradesh
54BTTRBitragunta (2)X  16:51-16:52-1m22438.84515mSCRBitragunta, Andhra Pradesh
55NLRNellore (4)  17:38-17:40-2m32473.24821mSCRNellore, Andhra Pradesh
56VDEVedayapalem (2)XO  17:49-17:50-1m22480.41927mSCRNellore, Andhra Pradesh
57GDRGudur Junction (3)  19:08 19:28-19:10 19:30-2m32511.66819mSCRGudur, Andhra Pradesh
58VDDVendodu (2)X  19:27 19:47-19:28 19:48-1m--2530.89955mSCRNellore, Andhra Pradesh
59VKIVenkatagiri (3)  19:40 19:58-19:41 20:00-1 2m22547.48277mSCRNellore District, Andhra Pradesh
60KHTSri Kalahasti (2)X  20:01 20:18-20:02 20:20-1 2m12571.87068mSCRChittoor District, Andhra Pradesh
61RURenigunta Junction (5)O  20:35 20:40-20:40 20:45-5m--2595.015113mSCRChittoor District, Andhra Pradesh
62TPTYTirupati Main (5)  21:25--12604.9-150mSCRChittoor Distt, Andhra Pradesh
Scroll to Top
Scroll to Bottom